Terminal Aerodrome Forecast
Issued by NWS

Home | Current Version | Previous Version | Text Only | Print | Product List | Glossary On
Versions: 1 2 3 4 5 6 7 8 9 10 11 12 13 14 15 16 17 18 19 20 21 22 23 24 25 26 27 28 29 30 31 32
821
FTUS41 KPBZ 310539
TAFBVI
TAF
KBVI 310539Z 3106/0106 00000KT 5SM BR SCT090
     FM310700 00000KT 2SM BR SCT005
     FM311000 00000KT 1SM BR BKN004
     FM311300 24003KT 3SM BR BKN010
     FM311500 22005KT P6SM BKN020
     FM311700 23005KT P6SM VCSH BKN040
     FM010000 00000KT P6SM SCT200
      AMD NOT SKED=

USA.gov is the U.S. government's official web portal to all federal, state and local government web resources and services.